sensor_id;sensor_type;location;lat;lon;timestamp;temperature;humidity
4604;DHT22;2314;48.272;11.562;2023-11-22T00:01:48;6.30;99.90
4604;DHT22;2314;48.272;11.562;2023-11-22T00:04:15;6.30;99.90
4604;DHT22;2314;48.272;11.562;2023-11-22T00:06:43;6.30;99.90
4604;DHT22;2314;48.272;11.562;2023-11-22T00:09:10;6.30;99.90
4604;DHT22;2314;48.272;11.562;2023-11-22T00:11:37;6.40;99.90
4604;DHT22;2314;48.272;11.562;2023-11-22T00:14:05;6.30;99.90
4604;DHT22;2314;48.272;11.562;2023-11-22T00:16:34;6.40;99.90
4604;DHT22;2314;48.272;11.562;2023-11-22T00:19:02;6.30;99.90
4604;DHT22;2314;48.272;11.562;2023-11-22T00:21:30;6.30;99.90
4604;DHT22;2314;48.272;11.562;2023-11-22T00:23:57;6.30;99.90
4604;DHT22;2314;48.272;11.562;2023-11-22T00:26:25;6.30;99.90
4604;DHT22;2314;48.272;11.562;2023-11-22T00:28:52;6.30;99.90
4604;DHT22;2314;48.272;11.562;2023-11-22T00:31:19;6.30;99.90
4604;DHT22;2314;48.272;11.562;2023-11-22T00:33:47;6.30;99.90
4604;DHT22;2314;48.272;11.562;2023-11-22T00:36:14;6.30;99.90
4604;DHT22;2314;48.272;11.562;2023-11-22T00:38:42;6.30;99.90
4604;DHT22;2314;48.272;11.562;2023-11-22T00:41:09;6.30;99.90
4604;DHT22;2314;48.272;11.562;2023-11-22T00:43:37;6.30;99.90
4604;DHT22;2314;48.272;11.562;2023-11-22T00:46:04;6.40;99.90
4604;DHT22;2314;48.272;11.562;2023-11-22T00:48:31;6.40;99.90
4604;DHT22;2314;48.272;11.562;2023-11-22T00:51:00;6.40;99.90
4604;DHT22;2314;48.272;11.562;2023-11-22T00:53:33;6.40;99.90
4604;DHT22;2314;48.272;11.562;2023-11-22T00:56:00;6.40;99.90
4604;DHT22;2314;48.272;11.562;2023-11-22T00:58:27;6.40;99.90
4604;DHT22;2314;48.272;11.562;2023-11-22T01:00:54;6.40;99.90
4604;DHT22;2314;48.272;11.562;2023-11-22T01:03:21;6.30;99.90
4604;DHT22;2314;48.272;11.562;2023-11-22T01:05:48;6.30;99.90
4604;DHT22;2314;48.272;11.562;2023-11-22T01:08:16;6.30;99.90
4604;DHT22;2314;48.272;11.562;2023-11-22T01:10:44;6.30;99.90
4604;DHT22;2314;48.272;11.562;2023-11-22T01:13:11;6.20;99.90
4604;DHT22;2314;48.272;11.562;2023-11-22T01:15:40;6.30;99.90
4604;DHT22;2314;48.272;11.562;2023-11-22T01:18:07;6.20;99.90
4604;DHT22;2314;48.272;11.562;2023-11-22T01:20:34;6.30;99.90
4604;DHT22;2314;48.272;11.562;2023-11-22T01:23:01;6.20;99.90
4604;DHT22;2314;48.272;11.562;2023-11-22T01:25:29;6.10;99.90
4604;DHT22;2314;48.272;11.562;2023-11-22T01:27:56;6.10;99.90
4604;DHT22;2314;48.272;11.562;2023-11-22T01:30:23;6.10;99.90
4604;DHT22;2314;48.272;11.562;2023-11-22T01:32:50;6.10;99.90
4604;DHT22;2314;48.272;11.562;2023-11-22T01:35:17;6.10;99.90
4604;DHT22;2314;48.272;11.562;2023-11-22T01:37:44;6.00;99.90
4604;DHT22;2314;48.272;11.562;2023-11-22T01:40:12;5.90;99.90
4604;DHT22;2314;48.272;11.562;2023-11-22T01:42:40;5.80;99.90
4604;DHT22;2314;48.272;11.562;2023-11-22T01:45:11;5.70;99.90
4604;DHT22;2314;48.272;11.562;2023-11-22T01:47:39;5.60;99.90
4604;DHT22;2314;48.272;11.562;2023-11-22T01:50:07;5.40;99.90
4604;DHT22;2314;48.272;11.562;2023-11-22T01:52:35;5.20;99.90
4604;DHT22;2314;48.272;11.562;2023-11-22T01:55:03;4.90;99.90
4604;DHT22;2314;48.272;11.562;2023-11-22T01:57:31;4.60;99.90
4604;DHT22;2314;48.272;11.562;2023-11-22T02:00:01;4.40;99.90
4604;DHT22;2314;48.272;11.562;2023-11-22T02:02:30;4.20;99.90
4604;DHT22;2314;48.272;11.562;2023-11-22T02:04:57;4.10;99.90
4604;DHT22;2314;48.272;11.562;2023-11-22T02:07:24;4.10;99.90
4604;DHT22;2314;48.272;11.562;2023-11-22T02:09:53;4.00;99.90
4604;DHT22;2314;48.272;11.562;2023-11-22T02:12:21;4.00;99.90
4604;DHT22;2314;48.272;11.562;2023-11-22T02:14:49;3.80;99.90
4604;DHT22;2314;48.272;11.562;2023-11-22T02:17:17;3.70;99.90
4604;DHT22;2314;48.272;11.562;2023-11-22T02:19:44;3.70;99.90
4604;DHT22;2314;48.272;11.562;2023-11-22T02:22:11;3.70;99.90
4604;DHT22;2314;48.272;11.562;2023-11-22T02:24:39;3.70;99.90
4604;DHT22;2314;48.272;11.562;2023-11-22T02:27:06;3.70;99.90
4604;DHT22;2314;48.272;11.562;2023-11-22T02:29:34;3.60;99.90
4604;DHT22;2314;48.272;11.562;2023-11-22T02:32:01;3.50;99.90
4604;DHT22;2314;48.272;11.562;2023-11-22T02:34:29;3.50;99.90
4604;DHT22;2314;48.272;11.562;2023-11-22T02:36:56;3.50;99.90
4604;DHT22;2314;48.272;11.562;2023-11-22T02:39:29;3.40;99.90
4604;DHT22;2314;48.272;11.562;2023-11-22T02:42:03;3.40;99.90
4604;DHT22;2314;48.272;11.562;2023-11-22T02:44:30;3.30;99.90
4604;DHT22;2314;48.272;11.562;2023-11-22T02:46:57;3.30;99.90
4604;DHT22;2314;48.272;11.562;2023-11-22T02:49:25;3.30;99.90
4604;DHT22;2314;48.272;11.562;2023-11-22T02:51:53;3.20;99.90
4604;DHT22;2314;48.272;11.562;2023-11-22T02:54:20;3.10;99.90
4604;DHT22;2314;48.272;11.562;2023-11-22T02:56:47;3.10;99.90
4604;DHT22;2314;48.272;11.562;2023-11-22T02:59:15;3.10;99.90
4604;DHT22;2314;48.272;11.562;2023-11-22T03:01:43;3.10;99.90
4604;DHT22;2314;48.272;11.562;2023-11-22T03:04:11;3.10;99.90
4604;DHT22;2314;48.272;11.562;2023-11-22T03:06:39;3.10;99.90
4604;DHT22;2314;48.272;11.562;2023-11-22T03:09:06;3.10;99.90
4604;DHT22;2314;48.272;11.562;2023-11-22T03:11:34;3.10;99.90
4604;DHT22;2314;48.272;11.562;2023-11-22T03:14:01;3.10;99.90
4604;DHT22;2314;48.272;11.562;2023-11-22T03:16:30;3.10;99.90
4604;DHT22;2314;48.272;11.562;2023-11-22T03:18:58;3.10;99.90
4604;DHT22;2314;48.272;11.562;2023-11-22T03:21:25;3.10;99.90
4604;DHT22;2314;48.272;11.562;2023-11-22T03:23:53;3.10;99.90
4604;DHT22;2314;48.272;11.562;2023-11-22T03:26:20;3.10;99.90
4604;DHT22;2314;48.272;11.562;2023-11-22T03:28:47;3.10;99.90
4604;DHT22;2314;48.272;11.562;2023-11-22T03:31:14;3.10;99.90
4604;DHT22;2314;48.272;11.562;2023-11-22T03:33:43;3.10;99.90
4604;DHT22;2314;48.272;11.562;2023-11-22T03:36:11;3.10;99.90
4604;DHT22;2314;48.272;11.562;2023-11-22T03:38:38;3.10;99.90
4604;DHT22;2314;48.272;11.562;2023-11-22T03:41:07;3.00;99.90
4604;DHT22;2314;48.272;11.562;2023-11-22T03:43:34;3.00;99.90
4604;DHT22;2314;48.272;11.562;2023-11-22T03:46:02;3.10;99.90
4604;DHT22;2314;48.272;11.562;2023-11-22T03:48:29;3.10;99.90
4604;DHT22;2314;48.272;11.562;2023-11-22T03:51:00;3.10;99.90
4604;DHT22;2314;48.272;11.562;2023-11-22T03:53:27;3.10;99.90
4604;DHT22;2314;48.272;11.562;2023-11-22T03:55:55;3.10;99.90
4604;DHT22;2314;48.272;11.562;2023-11-22T03:58:22;3.10;99.90
4604;DHT22;2314;48.272;11.562;2023-11-22T04:00:49;3.20;99.90
4604;DHT22;2314;48.272;11.562;2023-11-22T04:03:18;3.20;99.90
4604;DHT22;2314;48.272;11.562;2023-11-22T04:05:48;3.20;99.90
4604;DHT22;2314;48.272;11.562;2023-11-22T04:08:16;3.30;99.90
4604;DHT22;2314;48.272;11.562;2023-11-22T04:10:43;3.20;99.90
4604;DHT22;2314;48.272;11.562;2023-11-22T04:13:11;3.20;99.90
4604;DHT22;2314;48.272;11.562;2023-11-22T04:15:38;3.20;99.90
4604;DHT22;2314;48.272;11.562;2023-11-22T04:18:07;3.20;99.90
4604;DHT22;2314;48.272;11.562;2023-11-22T04:20:34;3.20;99.90
4604;DHT22;2314;48.272;11.562;2023-11-22T04:23:05;3.20;99.90
4604;DHT22;2314;48.272;11.562;2023-11-22T04:25:34;3.20;99.90
4604;DHT22;2314;48.272;11.562;2023-11-22T04:28:04;3.20;99.90
4604;DHT22;2314;48.272;11.562;2023-11-22T04:30:37;3.20;99.90
4604;DHT22;2314;48.272;11.562;2023-11-22T04:33:04;3.20;99.90
4604;DHT22;2314;48.272;11.562;2023-11-22T04:35:32;3.10;99.90
4604;DHT22;2314;48.272;11.562;2023-11-22T04:38:01;3.10;99.90
4604;DHT22;2314;48.272;11.562;2023-11-22T04:40:29;3.10;99.90
4604;DHT22;2314;48.272;11.562;2023-11-22T04:42:57;3.10;99.90
4604;DHT22;2314;48.272;11.562;2023-11-22T04:45:27;3.10;99.90
4604;DHT22;2314;48.272;11.562;2023-11-22T04:47:54;3.00;99.90
4604;DHT22;2314;48.272;11.562;2023-11-22T04:50:22;3.00;99.90
4604;DHT22;2314;48.272;11.562;2023-11-22T04:52:50;3.00;99.90
4604;DHT22;2314;48.272;11.562;2023-11-22T04:55:17;3.00;99.90
4604;DHT22;2314;48.272;11.562;2023-11-22T04:57:48;2.90;99.90
4604;DHT22;2314;48.272;11.562;2023-11-22T05:00:17;2.90;99.90
4604;DHT22;2314;48.272;11.562;2023-11-22T05:02:44;2.90;99.90
4604;DHT22;2314;48.272;11.562;2023-11-22T05:05:15;2.90;99.90
4604;DHT22;2314;48.272;11.562;2023-11-22T05:07:42;2.90;99.90
4604;DHT22;2314;48.272;11.562;2023-11-22T05:10:10;2.80;99.90
4604;DHT22;2314;48.272;11.562;2023-11-22T05:12:37;2.80;99.90
4604;DHT22;2314;48.272;11.562;2023-11-22T05:15:05;2.80;99.90
4604;DHT22;2314;48.272;11.562;2023-11-22T05:17:34;2.80;99.90
4604;DHT22;2314;48.272;11.562;2023-11-22T05:20:05;2.80;99.90
4604;DHT22;2314;48.272;11.562;2023-11-22T05:22:34;2.80;99.90
4604;DHT22;2314;48.272;11.562;2023-11-22T05:25:03;2.80;99.90
4604;DHT22;2314;48.272;11.562;2023-11-22T05:27:32;2.90;99.90
4604;DHT22;2314;48.272;11.562;2023-11-22T05:29:59;2.80;99.90
4604;DHT22;2314;48.272;11.562;2023-11-22T05:32:27;2.80;99.90
4604;DHT22;2314;48.272;11.562;2023-11-22T05:34:55;2.80;99.90
4604;DHT22;2314;48.272;11.562;2023-11-22T05:37:23;2.80;99.90
4604;DHT22;2314;48.272;11.562;2023-11-22T05:39:50;2.80;99.90
4604;DHT22;2314;48.272;11.562;2023-11-22T05:42:17;2.90;99.90
4604;DHT22;2314;48.272;11.562;2023-11-22T05:44:44;2.90;99.90
4604;DHT22;2314;48.272;11.562;2023-11-22T05:47:11;2.80;99.90
4604;DHT22;2314;48.272;11.562;2023-11-22T05:49:39;2.80;99.90
4604;DHT22;2314;48.272;11.562;2023-11-22T05:52:07;2.80;99.90
4604;DHT22;2314;48.272;11.562;2023-11-22T05:54:34;2.80;99.90
4604;DHT22;2314;48.272;11.562;2023-11-22T05:57:02;2.80;99.90
4604;DHT22;2314;48.272;11.562;2023-11-22T05:59:30;2.90;99.90
4604;DHT22;2314;48.272;11.562;2023-11-22T06:01:57;2.90;99.90
4604;DHT22;2314;48.272;11.562;2023-11-22T06:04:24;2.90;99.90
4604;DHT22;2314;48.272;11.562;2023-11-22T06:06:51;2.90;99.90
4604;DHT22;2314;48.272;11.562;2023-11-22T06:09:19;2.90;99.90
4604;DHT22;2314;48.272;11.562;2023-11-22T06:11:48;2.90;99.90
4604;DHT22;2314;48.272;11.562;2023-11-22T06:14:15;2.80;99.90
4604;DHT22;2314;48.272;11.562;2023-11-22T06:16:42;2.80;99.90
4604;DHT22;2314;48.272;11.562;2023-11-22T06:19:09;2.80;99.90
4604;DHT22;2314;48.272;11.562;2023-11-22T06:21:36;2.80;99.90
4604;DHT22;2314;48.272;11.562;2023-11-22T06:24:04;2.80;99.90
4604;DHT22;2314;48.272;11.562;2023-11-22T06:26:35;2.80;99.90
4604;DHT22;2314;48.272;11.562;2023-11-22T06:29:04;2.80;99.90
4604;DHT22;2314;48.272;11.562;2023-11-22T06:31:31;2.80;99.90
4604;DHT22;2314;48.272;11.562;2023-11-22T06:33:59;2.80;99.90
4604;DHT22;2314;48.272;11.562;2023-11-22T06:36:27;2.80;99.90
4604;DHT22;2314;48.272;11.562;2023-11-22T06:38:55;2.80;99.90
4604;DHT22;2314;48.272;11.562;2023-11-22T06:41:22;2.80;99.90
4604;DHT22;2314;48.272;11.562;2023-11-22T06:43:50;2.70;99.90
4604;DHT22;2314;48.272;11.562;2023-11-22T06:46:17;2.70;99.90
4604;DHT22;2314;48.272;11.562;2023-11-22T06:48:44;2.70;99.90
4604;DHT22;2314;48.272;11.562;2023-11-22T06:51:11;2.70;99.90
4604;DHT22;2314;48.272;11.562;2023-11-22T06:53:38;2.70;99.90
4604;DHT22;2314;48.272;11.562;2023-11-22T06:56:05;2.70;99.90
4604;DHT22;2314;48.272;11.562;2023-11-22T06:58:32;2.70;99.90
4604;DHT22;2314;48.272;11.562;2023-11-22T07:01:01;2.70;99.90
4604;DHT22;2314;48.272;11.562;2023-11-22T07:03:28;2.70;99.90
4604;DHT22;2314;48.272;11.562;2023-11-22T07:05:57;2.70;99.90
4604;DHT22;2314;48.272;11.562;2023-11-22T07:08:24;2.70;99.90
4604;DHT22;2314;48.272;11.562;2023-11-22T07:10:53;2.70;99.90
4604;DHT22;2314;48.272;11.562;2023-11-22T07:13:22;2.70;99.90
4604;DHT22;2314;48.272;11.562;2023-11-22T07:15:49;2.80;99.90
4604;DHT22;2314;48.272;11.562;2023-11-22T07:18:18;2.80;99.90
4604;DHT22;2314;48.272;11.562;2023-11-22T07:20:45;2.70;99.90
4604;DHT22;2314;48.272;11.562;2023-11-22T07:23:13;2.70;99.90
4604;DHT22;2314;48.272;11.562;2023-11-22T07:25:41;2.70;99.90
4604;DHT22;2314;48.272;11.562;2023-11-22T07:28:09;2.70;99.90
4604;DHT22;2314;48.272;11.562;2023-11-22T07:30:36;2.70;99.90
4604;DHT22;2314;48.272;11.562;2023-11-22T07:33:06;2.70;99.90
4604;DHT22;2314;48.272;11.562;2023-11-22T07:35:35;2.70;99.90
4604;DHT22;2314;48.272;11.562;2023-11-22T07:38:02;2.70;99.90
4604;DHT22;2314;48.272;11.562;2023-11-22T07:40:29;2.70;99.90
4604;DHT22;2314;48.272;11.562;2023-11-22T07:42:57;2.70;99.90
4604;DHT22;2314;48.272;11.562;2023-11-22T07:45:24;2.70;99.90
4604;DHT22;2314;48.272;11.562;2023-11-22T07:47:51;2.80;99.90
4604;DHT22;2314;48.272;11.562;2023-11-22T07:50:19;2.70;99.90
4604;DHT22;2314;48.272;11.562;2023-11-22T07:52:48;2.80;99.90
4604;DHT22;2314;48.272;11.562;2023-11-22T07:55:16;2.80;99.90
4604;DHT22;2314;48.272;11.562;2023-11-22T07:57:43;2.80;99.90
4604;DHT22;2314;48.272;11.562;2023-11-22T08:00:11;2.70;99.90
4604;DHT22;2314;48.272;11.562;2023-11-22T08:02:39;2.80;99.90
4604;DHT22;2314;48.272;11.562;2023-11-22T08:05:08;2.80;99.90
4604;DHT22;2314;48.272;11.562;2023-11-22T08:07:35;2.80;99.90
4604;DHT22;2314;48.272;11.562;2023-11-22T08:10:07;2.80;99.90
4604;DHT22;2314;48.272;11.562;2023-11-22T08:12:40;2.80;99.90
4604;DHT22;2314;48.272;11.562;2023-11-22T08:15:08;2.80;99.90
4604;DHT22;2314;48.272;11.562;2023-11-22T08:17:38;2.80;99.90
4604;DHT22;2314;48.272;11.562;2023-11-22T08:20:06;2.90;99.90
4604;DHT22;2314;48.272;11.562;2023-11-22T08:22:37;2.90;99.90
4604;DHT22;2314;48.272;11.562;2023-11-22T08:25:07;2.80;99.90
4604;DHT22;2314;48.272;11.562;2023-11-22T08:27:38;2.80;99.90
4604;DHT22;2314;48.272;11.562;2023-11-22T08:30:07;2.80;99.90
4604;DHT22;2314;48.272;11.562;2023-11-22T08:32:39;2.70;99.90
4604;DHT22;2314;48.272;11.562;2023-11-22T08:35:08;2.70;99.90
4604;DHT22;2314;48.272;11.562;2023-11-22T08:37:35;2.70;99.90
4604;DHT22;2314;48.272;11.562;2023-11-22T08:40:07;2.80;99.90
4604;DHT22;2314;48.272;11.562;2023-11-22T08:42:36;2.80;99.90
4604;DHT22;2314;48.272;11.562;2023-11-22T08:45:07;2.80;99.90
4604;DHT22;2314;48.272;11.562;2023-11-22T08:47:35;2.80;99.90
4604;DHT22;2314;48.272;11.562;2023-11-22T08:50:02;2.90;99.90
4604;DHT22;2314;48.272;11.562;2023-11-22T08:52:30;2.80;99.90
4604;DHT22;2314;48.272;11.562;2023-11-22T08:54:57;2.90;99.90
4604;DHT22;2314;48.272;11.562;2023-11-22T08:57:27;2.90;99.90
4604;DHT22;2314;48.272;11.562;2023-11-22T08:59:54;3.00;99.90
4604;DHT22;2314;48.272;11.562;2023-11-22T09:02:21;3.10;99.90
4604;DHT22;2314;48.272;11.562;2023-11-22T09:04:49;3.10;99.90
4604;DHT22;2314;48.272;11.562;2023-11-22T09:07:16;3.20;99.90
4604;DHT22;2314;48.272;11.562;2023-11-22T09:09:43;3.10;99.90
4604;DHT22;2314;48.272;11.562;2023-11-22T09:12:10;3.10;99.90
4604;DHT22;2314;48.272;11.562;2023-11-22T09:14:40;3.00;99.90
4604;DHT22;2314;48.272;11.562;2023-11-22T09:17:07;2.90;99.90
4604;DHT22;2314;48.272;11.562;2023-11-22T09:19:35;3.00;99.90
4604;DHT22;2314;48.272;11.562;2023-11-22T09:22:03;3.00;99.90
4604;DHT22;2314;48.272;11.562;2023-11-22T09:24:32;2.90;99.90
4604;DHT22;2314;48.272;11.562;2023-11-22T09:27:02;3.00;99.90
4604;DHT22;2314;48.272;11.562;2023-11-22T09:29:31;3.00;99.90
4604;DHT22;2314;48.272;11.562;2023-11-22T09:32:00;3.10;99.90
4604;DHT22;2314;48.272;11.562;2023-11-22T09:34:28;3.20;99.90
4604;DHT22;2314;48.272;11.562;2023-11-22T09:36:56;3.20;99.90
4604;DHT22;2314;48.272;11.562;2023-11-22T09:39:24;3.30;99.90
4604;DHT22;2314;48.272;11.562;2023-11-22T09:41:51;3.50;99.90
4604;DHT22;2314;48.272;11.562;2023-11-22T09:44:19;3.60;99.90
4604;DHT22;2314;48.272;11.562;2023-11-22T09:46:48;3.60;99.90
4604;DHT22;2314;48.272;11.562;2023-11-22T09:49:22;3.70;99.90
4604;DHT22;2314;48.272;11.562;2023-11-22T09:51:51;3.70;99.90
4604;DHT22;2314;48.272;11.562;2023-11-22T09:54:22;3.70;99.90
4604;DHT22;2314;48.272;11.562;2023-11-22T09:56:57;3.70;99.90
4604;DHT22;2314;48.272;11.562;2023-11-22T09:59:28;3.70;99.90
4604;DHT22;2314;48.272;11.562;2023-11-22T10:01:56;3.70;99.90
4604;DHT22;2314;48.272;11.562;2023-11-22T10:04:26;3.80;99.90
4604;DHT22;2314;48.272;11.562;2023-11-22T10:06:55;3.70;99.90
4604;DHT22;2314;48.272;11.562;2023-11-22T10:09:25;3.70;99.90
4604;DHT22;2314;48.272;11.562;2023-11-22T10:11:52;3.80;99.90
4604;DHT22;2314;48.272;11.562;2023-11-22T10:14:22;3.90;99.90
4604;DHT22;2314;48.272;11.562;2023-11-22T10:16:58;4.00;99.90
4604;DHT22;2314;48.272;11.562;2023-11-22T10:19:27;4.00;99.90
4604;DHT22;2314;48.272;11.562;2023-11-22T10:22:03;4.10;99.90
4604;DHT22;2314;48.272;11.562;2023-11-22T10:24:30;4.10;99.90
4604;DHT22;2314;48.272;11.562;2023-11-22T10:26:59;4.10;99.90
4604;DHT22;2314;48.272;11.562;2023-11-22T10:29:26;4.00;99.90
4604;DHT22;2314;48.272;11.562;2023-11-22T10:31:53;4.10;99.90
4604;DHT22;2314;48.272;11.562;2023-11-22T10:34:20;4.20;99.90
4604;DHT22;2314;48.272;11.562;2023-11-22T10:36:49;4.20;99.90
4604;DHT22;2314;48.272;11.562;2023-11-22T10:39:19;4.30;99.90
4604;DHT22;2314;48.272;11.562;2023-11-22T10:41:49;4.20;99.90
4604;DHT22;2314;48.272;11.562;2023-11-22T10:44:20;4.20;99.90
4604;DHT22;2314;48.272;11.562;2023-11-22T10:46:48;4.30;99.90
4604;DHT22;2314;48.272;11.562;2023-11-22T10:49:16;4.30;99.90
4604;DHT22;2314;48.272;11.562;2023-11-22T10:51:47;4.40;99.90
4604;DHT22;2314;48.272;11.562;2023-11-22T10:54:21;4.40;99.90
4604;DHT22;2314;48.272;11.562;2023-11-22T10:56:54;4.50;99.90
4604;DHT22;2314;48.272;11.562;2023-11-22T10:59:23;4.50;99.90
4604;DHT22;2314;48.272;11.562;2023-11-22T11:01:54;4.50;99.90
4604;DHT22;2314;48.272;11.562;2023-11-22T11:04:27;4.40;99.90
4604;DHT22;2314;48.272;11.562;2023-11-22T11:06:57;4.40;99.90
4604;DHT22;2314;48.272;11.562;2023-11-22T11:09:27;4.40;99.90
4604;DHT22;2314;48.272;11.562;2023-11-22T11:11:58;4.40;99.90
4604;DHT22;2314;48.272;11.562;2023-11-22T11:14:26;4.40;99.90
4604;DHT22;2314;48.272;11.562;2023-11-22T11:16:54;4.50;99.90
4604;DHT22;2314;48.272;11.562;2023-11-22T11:19:24;4.50;99.90
4604;DHT22;2314;48.272;11.562;2023-11-22T11:21:51;4.60;99.90
4604;DHT22;2314;48.272;11.562;2023-11-22T11:24:20;4.50;99.90
4604;DHT22;2314;48.272;11.562;2023-11-22T11:26:48;4.40;99.90
4604;DHT22;2314;48.272;11.562;2023-11-22T11:29:30;4.40;99.90
4604;DHT22;2314;48.272;11.562;2023-11-22T11:31:58;4.40;99.90
4604;DHT22;2314;48.272;11.562;2023-11-22T11:34:25;4.40;99.90
4604;DHT22;2314;48.272;11.562;2023-11-22T11:36:53;4.40;99.90
4604;DHT22;2314;48.272;11.562;2023-11-22T11:39:26;4.40;99.90
4604;DHT22;2314;48.272;11.562;2023-11-22T11:42:11;4.50;99.90
4604;DHT22;2314;48.272;11.562;2023-11-22T11:44:51;4.60;99.90
4604;DHT22;2314;48.272;11.562;2023-11-22T11:47:30;4.60;99.90
4604;DHT22;2314;48.272;11.562;2023-11-22T11:49:57;4.60;99.90
4604;DHT22;2314;48.272;11.562;2023-11-22T11:52:25;4.60;99.90
4604;DHT22;2314;48.272;11.562;2023-11-22T11:54:53;4.60;99.90
4604;DHT22;2314;48.272;11.562;2023-11-22T11:57:21;4.50;99.90
4604;DHT22;2314;48.272;11.562;2023-11-22T11:59:48;4.50;99.90
4604;DHT22;2314;48.272;11.562;2023-11-22T12:02:16;4.50;99.90
4604;DHT22;2314;48.272;11.562;2023-11-22T12:04:45;4.50;99.90
4604;DHT22;2314;48.272;11.562;2023-11-22T12:07:12;4.50;99.90
4604;DHT22;2314;48.272;11.562;2023-11-22T12:09:39;4.40;99.90
4604;DHT22;2314;48.272;11.562;2023-11-22T12:12:08;4.40;99.90
4604;DHT22;2314;48.272;11.562;2023-11-22T12:14:35;4.50;99.90
4604;DHT22;2314;48.272;11.562;2023-11-22T12:17:03;4.40;99.90
4604;DHT22;2314;48.272;11.562;2023-11-22T12:19:33;4.50;99.90
4604;DHT22;2314;48.272;11.562;2023-11-22T12:22:00;4.40;99.90
4604;DHT22;2314;48.272;11.562;2023-11-22T12:24:27;4.30;99.90
4604;DHT22;2314;48.272;11.562;2023-11-22T12:26:56;4.20;99.90
4604;DHT22;2314;48.272;11.562;2023-11-22T12:29:24;4.20;99.90
4604;DHT22;2314;48.272;11.562;2023-11-22T12:31:52;4.10;99.90
4604;DHT22;2314;48.272;11.562;2023-11-22T12:34:21;4.10;99.90
4604;DHT22;2314;48.272;11.562;2023-11-22T12:36:49;4.10;99.90
4604;DHT22;2314;48.272;11.562;2023-11-22T12:39:16;4.20;99.90
4604;DHT22;2314;48.272;11.562;2023-11-22T12:41:44;4.10;99.90
4604;DHT22;2314;48.272;11.562;2023-11-22T12:44:11;4.20;99.90
4604;DHT22;2314;48.272;11.562;2023-11-22T12:46:47;4.20;99.90
4604;DHT22;2314;48.272;11.562;2023-11-22T12:49:16;4.30;99.90
4604;DHT22;2314;48.272;11.562;2023-11-22T12:51:48;4.30;99.90
4604;DHT22;2314;48.272;11.562;2023-11-22T12:54:15;4.30;99.90
4604;DHT22;2314;48.272;11.562;2023-11-22T12:56:45;4.30;99.90
4604;DHT22;2314;48.272;11.562;2023-11-22T12:59:14;4.30;99.90
4604;DHT22;2314;48.272;11.562;2023-11-22T13:01:41;4.20;99.90
4604;DHT22;2314;48.272;11.562;2023-11-22T13:04:10;4.20;99.90
4604;DHT22;2314;48.272;11.562;2023-11-22T13:06:41;4.10;99.90
4604;DHT22;2314;48.272;11.562;2023-11-22T13:09:08;4.10;99.90
4604;DHT22;2314;48.272;11.562;2023-11-22T13:11:40;4.10;99.90
4604;DHT22;2314;48.272;11.562;2023-11-22T13:14:08;4.10;99.90
4604;DHT22;2314;48.272;11.562;2023-11-22T13:16:36;4.20;99.90
4604;DHT22;2314;48.272;11.562;2023-11-22T13:19:04;4.10;99.90
4604;DHT22;2314;48.272;11.562;2023-11-22T13:21:34;4.10;99.90
4604;DHT22;2314;48.272;11.562;2023-11-22T13:24:01;4.10;99.90
4604;DHT22;2314;48.272;11.562;2023-11-22T13:26:29;4.00;99.90
4604;DHT22;2314;48.272;11.562;2023-11-22T13:28:56;3.90;99.90
4604;DHT22;2314;48.272;11.562;2023-11-22T13:31:23;3.90;99.90
4604;DHT22;2314;48.272;11.562;2023-11-22T13:33:50;3.90;99.90
4604;DHT22;2314;48.272;11.562;2023-11-22T13:36:17;3.90;99.90
4604;DHT22;2314;48.272;11.562;2023-11-22T13:38:46;3.90;99.90
4604;DHT22;2314;48.272;11.562;2023-11-22T13:41:13;3.90;99.90
4604;DHT22;2314;48.272;11.562;2023-11-22T13:43:40;3.90;99.90
4604;DHT22;2314;48.272;11.562;2023-11-22T13:46:07;3.90;99.90
4604;DHT22;2314;48.272;11.562;2023-11-22T13:48:35;4.00;99.90
4604;DHT22;2314;48.272;11.562;2023-11-22T13:51:02;4.00;99.90
4604;DHT22;2314;48.272;11.562;2023-11-22T13:53:30;4.00;99.90
4604;DHT22;2314;48.272;11.562;2023-11-22T13:56:01;4.00;99.90
4604;DHT22;2314;48.272;11.562;2023-11-22T13:58:33;4.00;99.90
4604;DHT22;2314;48.272;11.562;2023-11-22T14:01:01;3.90;99.90
4604;DHT22;2314;48.272;11.562;2023-11-22T14:03:31;3.90;99.90
4604;DHT22;2314;48.272;11.562;2023-11-22T14:05:58;3.90;99.90
4604;DHT22;2314;48.272;11.562;2023-11-22T14:08:26;3.90;99.90
4604;DHT22;2314;48.272;11.562;2023-11-22T14:10:52;3.90;99.90
4604;DHT22;2314;48.272;11.562;2023-11-22T14:13:21;3.90;99.90
4604;DHT22;2314;48.272;11.562;2023-11-22T14:15:48;3.90;99.90
4604;DHT22;2314;48.272;11.562;2023-11-22T14:18:15;3.80;99.90
4604;DHT22;2314;48.272;11.562;2023-11-22T14:20:42;3.70;99.90
4604;DHT22;2314;48.272;11.562;2023-11-22T14:23:09;3.70;99.90
4604;DHT22;2314;48.272;11.562;2023-11-22T14:25:36;3.70;99.90
4604;DHT22;2314;48.272;11.562;2023-11-22T14:28:03;3.60;99.90
4604;DHT22;2314;48.272;11.562;2023-11-22T14:30:32;3.60;99.90
4604;DHT22;2314;48.272;11.562;2023-11-22T14:33:02;3.60;99.90
4604;DHT22;2314;48.272;11.562;2023-11-22T14:35:32;3.70;99.90
4604;DHT22;2314;48.272;11.562;2023-11-22T14:38:00;3.60;99.90
4604;DHT22;2314;48.272;11.562;2023-11-22T14:40:28;3.60;99.90
4604;DHT22;2314;48.272;11.562;2023-11-22T14:42:56;3.50;99.90
4604;DHT22;2314;48.272;11.562;2023-11-22T14:45:23;3.50;99.90
4604;DHT22;2314;48.272;11.562;2023-11-22T14:47:53;3.40;99.90
4604;DHT22;2314;48.272;11.562;2023-11-22T14:50:21;3.40;99.90
4604;DHT22;2314;48.272;11.562;2023-11-22T14:52:51;3.40;99.90
4604;DHT22;2314;48.272;11.562;2023-11-22T14:55:18;3.40;99.90
4604;DHT22;2314;48.272;11.562;2023-11-22T14:57:46;3.30;99.90
4604;DHT22;2314;48.272;11.562;2023-11-22T15:00:14;3.30;99.90
4604;DHT22;2314;48.272;11.562;2023-11-22T15:02:42;3.30;99.90
4604;DHT22;2314;48.272;11.562;2023-11-22T15:05:13;3.30;99.90
4604;DHT22;2314;48.272;11.562;2023-11-22T15:07:40;3.30;99.90
4604;DHT22;2314;48.272;11.562;2023-11-22T15:10:09;3.30;99.90
4604;DHT22;2314;48.272;11.562;2023-11-22T15:12:36;3.20;99.90
4604;DHT22;2314;48.272;11.562;2023-11-22T15:15:06;3.30;99.90
4604;DHT22;2314;48.272;11.562;2023-11-22T15:17:33;3.20;99.90
4604;DHT22;2314;48.272;11.562;2023-11-22T15:20:00;3.20;99.90
4604;DHT22;2314;48.272;11.562;2023-11-22T15:22:29;3.20;99.90
4604;DHT22;2314;48.272;11.562;2023-11-22T15:24:56;3.10;99.90
4604;DHT22;2314;48.272;11.562;2023-11-22T15:27:23;3.10;99.90
4604;DHT22;2314;48.272;11.562;2023-11-22T15:29:50;3.10;99.90
4604;DHT22;2314;48.272;11.562;2023-11-22T15:32:17;3.10;99.90
4604;DHT22;2314;48.272;11.562;2023-11-22T15:34:45;3.10;99.90
4604;DHT22;2314;48.272;11.562;2023-11-22T15:37:12;3.10;99.90
4604;DHT22;2314;48.272;11.562;2023-11-22T15:39:42;3.10;99.90
4604;DHT22;2314;48.272;11.562;2023-11-22T15:42:09;3.10;99.90
4604;DHT22;2314;48.272;11.562;2023-11-22T15:44:37;3.00;99.90
4604;DHT22;2314;48.272;11.562;2023-11-22T15:47:04;3.00;99.90
4604;DHT22;2314;48.272;11.562;2023-11-22T15:49:33;3.00;99.90
4604;DHT22;2314;48.272;11.562;2023-11-22T15:52:00;3.00;99.90
4604;DHT22;2314;48.272;11.562;2023-11-22T15:54:27;3.00;99.90
4604;DHT22;2314;48.272;11.562;2023-11-22T15:56:56;3.10;99.90
4604;DHT22;2314;48.272;11.562;2023-11-22T15:59:23;3.00;99.90
4604;DHT22;2314;48.272;11.562;2023-11-22T16:01:50;3.00;99.90
4604;DHT22;2314;48.272;11.562;2023-11-22T16:04:17;3.00;99.90
4604;DHT22;2314;48.272;11.562;2023-11-22T16:06:44;3.00;99.90
4604;DHT22;2314;48.272;11.562;2023-11-22T16:09:14;3.00;99.90